CheckWX is a tool to help pilots better visualize weather data.  It is not intended as a substitute for an official pre-flight weather briefing.

14:50:09 UTC

KLGA TAF
Laguardia Airport
New York, New York, USA
KLGA 211334Z 2114/2218 36012KT P6SM SKC FM211800 33008KT P6SM SKC FM212100 30006KT P6SM SKC FM212300 24008KT P6SM SKC FM221400 27012G19KT P6SM SKC

Feb-21@
14:00 UTC

Feb-21 @ 14:00 UTC

Feb-21@
18:00 UTC

Feb-21 @ 18:00 UTC

KLGA 211334Z 2114/2218 36012KT P6SM SKC
Wind
  • 360° at 12 KTS
Cloud Levels
  • Clear skies

Feb-21@
18:00 UTC

Feb-21 @ 18:00 UTC

Feb-21@
21:00 UTC

Feb-21 @ 21:00 UTC

FM211800 33008KT P6SM SKC

From

From Standard forecast or significant change

Wind
  • 330° at 8 KTS
Cloud Levels
  • Clear skies

Feb-21@
21:00 UTC

Feb-21 @ 21:00 UTC

Feb-21@
23:00 UTC

Feb-21 @ 23:00 UTC

FM212100 30006KT P6SM SKC

From

From Standard forecast or significant change

Wind
  • 300° at 6 KTS
Cloud Levels
  • Clear skies

Feb-21@
23:00 UTC

Feb-21 @ 23:00 UTC

Feb-22@
14:00 UTC

Feb-22 @ 14:00 UTC

FM212300 24008KT P6SM SKC

From

From Standard forecast or significant change

Wind
  • 240° at 8 KTS
Cloud Levels
  • Clear skies

Feb-22@
14:00 UTC

Feb-22 @ 14:00 UTC

Feb-22@
18:00 UTC

Feb-22 @ 18:00 UTC

FM221400 27012G19KT P6SM SKC

From

From Standard forecast or significant change

Wind
  • 270° at 12 KTS
  • {Gusting to 19 KTS
Cloud Levels
  • Clear skies